createdAt,value
2018-03-22T00:16:03.928Z,6.15
2018-03-22T00:36:38.892Z,4.80
2018-03-22T00:57:18.156Z,4.43
2018-03-22T01:17:52.508Z,5.45
2018-03-22T01:38:26.551Z,5.50
2018-03-22T01:58:57.828Z,5.32
2018-03-22T02:19:30.951Z,5.50
2018-03-22T02:40:04.381Z,5.75
2018-03-22T03:00:35.348Z,5.15
2018-03-22T03:21:07.551Z,5.60
2018-03-22T03:41:40.989Z,5.85
2018-03-22T04:02:14.097Z,6.20
2018-03-22T04:22:50.291Z,5.55
2018-03-22T04:43:24.642Z,5.85
2018-03-22T05:03:59.611Z,5.87
2018-03-22T05:24:33.035Z,5.30
2018-03-22T05:45:08.307Z,6.45
2018-03-22T06:05:40.506Z,5.07
2018-03-22T06:26:12.699Z,5.95
2018-03-22T06:46:43.981Z,9.90
2018-03-22T07:07:18.024Z,8.50
2018-03-22T07:27:50.226Z,9.90
2018-03-22T07:48:22.426Z,10.33
2018-03-22T08:08:56.473Z,9.90
2018-03-22T08:29:31.151Z,9.30
2018-03-22T08:50:05.172Z,9.37
2018-03-22T09:10:38.294Z,8.13
2018-03-22T09:31:16.332Z,9.80
2018-03-22T09:51:47.617Z,10.07
2018-03-22T10:12:21.952Z,8.67
2018-03-22T10:32:58.494Z,8.30
2018-03-22T10:53:34.341Z,7.53
2018-03-22T11:14:11.765Z,8.57
2018-03-22T11:34:47.960Z,6.97
2018-03-22T11:55:24.464Z,7.07
2018-03-22T12:16:00.701Z,5.83
2018-03-22T12:36:34.692Z,6.73
2018-03-22T12:57:17.031Z,5.77
2018-03-22T13:17:50.441Z,6.03
2018-03-22T13:38:22.361Z,6.30
2018-03-22T13:58:56.851Z,6.03
2018-03-22T14:19:29.826Z,5.27
2018-03-22T14:40:06.638Z,4.63
2018-03-22T15:00:41.289Z,4.73
2018-03-22T15:42:09.957Z,4.77
2018-03-22T16:02:43.078Z,5.17
2018-03-22T16:23:22.659Z,4.57
2018-03-22T16:43:56.695Z,7.47
2018-03-22T17:04:33.806Z,3.77
2018-03-22T17:25:11.372Z,4.27
2018-03-22T17:45:46.603Z,3.37
2018-03-22T18:06:22.393Z,4.53
2018-03-22T18:26:52.751Z,4.47
2018-03-22T18:47:25.874Z,5.90
2018-03-22T19:08:00.452Z,6.90
2018-03-22T19:28:32.419Z,7.63
2018-03-22T19:49:06.874Z,8.07
2018-03-22T20:09:40.815Z,13.00
2018-03-22T20:30:16.373Z,13.90
2018-03-22T20:50:49.217Z,11.23
2018-03-22T21:11:24.480Z,11.23
2018-03-22T21:32:01.005Z,11.07
2018-03-22T21:52:49.153Z,11.70
2018-03-22T22:13:26.276Z,12.33
2018-03-22T22:34:00.615Z,11.60
2018-03-22T22:54:36.810Z,12.20
2018-03-22T23:15:13.320Z,14.43
2018-03-22T23:35:50.560Z,12.70
2018-03-22T23:56:22.631Z,15.53
